Cordova, North Carolina
Current Conditions -  °F | °C
As of 1:35 AM on Saturday 20 Dec 2014 (Local Time) from KRCZ Reporting Station
Clear Clear  
Wind Chill: 40°   Ceiling: Unl
Heat Index: 43°   Visibility: 10mi
Dew Point: 31°   Wind: 5mph
Humidity: 63%   Direction: 80°E
Pressure: 30.19"   Gusts: NA
Location:  34.91°N, 79.82°W
Report Text: KRCZ 200635Z AUTO 08004KT 10SM CLR 06/M01 A3019 RMK AO2 T00601006
Loading
Personal Weather Stations






























Interactive Weather Map New forecast layout! Learn more

10-Day Weather Forecast

Advertisements
Track Severe Weather on mobile